Time;durP1;ratioP1;P1;durP2;ratioP2;P2;SDS_P1;SDS_P2;PMS_P1;PMS_P2;Temp;Humidity;BMP_temperature;BMP_pressure;BME280_temperature;BME280_humidity;BME280_pressure;Samples;Min_cycle;Max_cycle;Signal;HPM_P1;HPM_P2
2022/05/01 00:01:07;;;;;;;21.85;15.30;;;13.00;99.90;;;;;;6093263;23;20419;-83
2022/05/01 00:03:35;;;;;;;19.80;15.65;;;13.00;99.90;;;;;;6091697;23;20048;-83
2022/05/01 00:06:04;;;;;;;22.05;14.43;;;13.00;99.90;;;;;;6091641;23;20086;-83
2022/05/01 00:08:30;;;;;;;20.70;15.32;;;13.00;99.90;;;;;;6091714;23;20010;-83
2022/05/01 00:10:57;;;;;;;22.23;15.25;;;13.00;99.90;;;;;;6091911;23;20334;-83
2022/05/01 00:13:23;;;;;;;21.00;15.90;;;13.00;99.90;;;;;;6091731;23;20009;-83
2022/05/01 00:15:50;;;;;;;20.73;14.98;;;13.00;99.90;;;;;;6091656;23;20006;-83
2022/05/01 00:18:16;;;;;;;20.02;15.25;;;13.00;99.90;;;;;;6091614;23;20037;-83
2022/05/01 00:20:42;;;;;;;23.40;16.08;;;13.00;99.90;;;;;;6093237;23;20387;-83
2022/05/01 00:23:08;;;;;;;20.55;15.52;;;13.00;99.90;;;;;;6091746;23;20324;-83
2022/05/01 00:25:35;;;;;;;20.77;15.95;;;13.00;99.90;;;;;;6091706;23;20006;-83
2022/05/01 00:28:01;;;;;;;22.20;15.93;;;13.00;99.90;;;;;;6093215;23;20064;-83
2022/05/01 00:30:27;;;;;;;23.50;16.33;;;13.00;99.90;;;;;;6091590;23;20061;-83
2022/05/01 00:38:24;;;;;;;;;;;13.00;99.90;;;;;;6094054;23;20461;-83
2022/05/01 00:40:51;;;;;;;19.90;15.77;;;12.90;99.90;;;;;;6091636;23;19902;-83
2022/05/01 00:43:17;;;;;;;22.50;16.60;;;13.00;99.90;;;;;;6093497;23;20415;-83
2022/05/01 00:45:42;;;;;;;23.90;16.90;;;12.90;99.90;;;;;;6091560;23;20061;-83
2022/05/01 00:48:08;;;;;;;21.15;16.13;;;12.90;99.90;;;;;;6091751;23;20003;-83
2022/05/01 00:50:35;;;;;;;20.70;15.63;;;12.90;99.90;;;;;;6093376;23;20052;-83
2022/05/01 00:53:04;;;;;;;19.75;16.20;;;12.90;99.90;;;;;;6091424;23;20013;-83
2022/05/01 00:55:34;;;;;;;24.67;15.98;;;12.90;99.90;;;;;;6091589;23;20015;-83
2022/05/01 00:58:01;;;;;;;25.25;16.65;;;12.90;99.90;;;;;;6091418;23;20064;-83
2022/05/01 01:00:27;;;;;;;24.08;16.42;;;12.90;99.90;;;;;;6092905;23;20007;-84
2022/05/01 01:02:54;;;;;;;24.63;16.33;;;12.90;99.90;;;;;;6093132;23;20057;-83
2022/05/01 01:05:20;;;;;;;24.02;16.95;;;12.90;99.90;;;;;;6091234;23;20011;-83
2022/05/01 01:07:46;;;;;;;22.20;17.00;;;12.90;99.90;;;;;;6092764;23;20423;-82
2022/05/01 01:10:12;;;;;;;22.98;16.45;;;12.90;99.90;;;;;;6092433;23;20465;-83
2022/05/01 01:12:56;;;;;;;20.30;15.73;;;12.90;99.90;;;;;;6092727;23;20082;-83
2022/05/01 01:15:30;;;;;;;22.58;15.63;;;12.90;99.90;;;;;;6091128;23;20007;-83
2022/05/01 01:17:56;;;;;;;23.35;16.17;;;12.90;99.90;;;;;;6091192;23;20316;-83
2022/05/01 01:20:23;;;;;;;22.67;15.90;;;12.90;99.90;;;;;;6093386;23;20002;-83
2022/05/01 01:22:50;;;;;;;24.77;17.60;;;12.90;99.90;;;;;;6092340;23;20343;-83
2022/05/01 01:25:23;;;;;;;21.63;16.73;;;12.90;99.90;;;;;;6092302;23;20045;-83
2022/05/01 01:27:54;;;;;;;21.35;16.25;;;12.90;99.90;;;;;;6094201;23;20033;-83
2022/05/01 01:33:05;;;;;;;21.63;15.70;;;12.90;99.90;;;;;;6144208;23;20065;-83
2022/05/01 01:35:35;;;;;;;22.73;16.13;;;12.80;99.90;;;;;;6248176;23;20008;-83
2022/05/01 01:38:01;;;;;;;22.38;16.25;;;12.80;99.90;;;;;;6221098;23;20004;-83
2022/05/01 01:40:57;;;;;;;23.35;16.90;;;12.90;99.90;;;;;;6221001;23;20506;-83
2022/05/01 01:43:27;;;;;;;22.45;16.00;;;12.80;99.90;;;;;;6221029;23;20023;-83
2022/05/01 01:45:53;;;;;;;24.05;17.13;;;12.80;99.90;;;;;;6220950;23;20000;-82
2022/05/01 01:48:20;;;;;;;18.90;14.98;;;12.80;99.90;;;;;;6220921;23;20008;-83
2022/05/01 01:50:57;;;;;;;23.05;15.88;;;12.80;99.90;;;;;;6247821;23;20423;-83
2022/05/01 01:53:22;;;;;;;23.90;16.65;;;12.80;99.90;;;;;;6220928;23;20046;-83
2022/05/01 01:55:48;;;;;;;20.65;15.63;;;12.80;99.90;;;;;;6221855;23;20486;-83
2022/05/01 01:58:14;;;;;;;19.38;15.52;;;12.80;99.90;;;;;;6248071;23;19996;-83
2022/05/01 02:00:39;;;;;;;21.42;15.68;;;12.80;99.90;;;;;;6220953;23;20000;-83
2022/05/01 02:03:05;;;;;;;22.35;16.15;;;12.80;99.90;;;;;;6247683;23;20301;-83
2022/05/01 02:05:33;;;;;;;22.08;15.68;;;12.80;99.90;;;;;;6247612;23;20004;-83
2022/05/01 02:08:00;;;;;;;20.60;15.10;;;12.80;99.90;;;;;;6247958;23;20027;-83
2022/05/01 02:10:26;;;;;;;20.85;14.98;;;12.80;99.90;;;;;;6247630;23;20439;-83
2022/05/01 02:12:52;;;;;;;21.25;14.32;;;12.80;99.90;;;;;;6247557;23;20001;-83
2022/05/01 02:15:18;;;;;;;22.98;15.95;;;12.80;99.90;;;;;;6220574;23;20007;-83
2022/05/01 02:17:50;;;;;;;20.15;14.80;;;12.80;99.90;;;;;;6247492;23;19996;-83
2022/05/01 02:20:16;;;;;;;21.08;15.57;;;12.80;99.90;;;;;;6220563;23;20058;-83
2022/05/01 02:22:43;;;;;;;21.73;15.00;;;12.80;99.90;;;;;;6247458;23;20000;-83
2022/05/01 02:25:12;;;;;;;22.40;16.58;;;12.80;99.90;;;;;;6247428;23;20000;-83
2022/05/01 02:27:38;;;;;;;21.90;15.88;;;12.80;99.90;;;;;;6220475;23;20009;-83
2022/05/01 02:30:05;;;;;;;21.00;15.05;;;12.80;99.90;;;;;;6220463;23;20008;-83
2022/05/01 02:32:31;;;;;;;22.63;15.63;;;12.80;99.90;;;;;;6246450;23;20050;-83
2022/05/01 02:34:57;;;;;;;19.75;14.77;;;12.80;99.90;;;;;;6247557;23;20012;-83
2022/05/01 02:37:22;;;;;;;23.77;16.15;;;12.70;99.90;;;;;;6247729;23;19999;-83
2022/05/01 02:39:48;;;;;;;26.42;16.70;;;12.70;99.90;;;;;;6220442;23;20428;-83
2022/05/01 02:42:13;;;;;;;23.02;16.48;;;12.80;99.90;;;;;;6220405;23;20000;-83
2022/05/01 02:44:43;;;;;;;23.55;16.58;;;12.70;99.90;;;;;;6247578;23;20080;-83
2022/05/01 02:47:09;;;;;;;21.38;15.63;;;12.70;99.90;;;;;;6247260;23;20452;-83
2022/05/01 02:49:35;;;;;;;19.70;14.43;;;12.70;99.90;;;;;;6220388;23;20015;-82
2022/05/01 02:52:01;;;;;;;23.67;15.90;;;12.70;99.90;;;;;;6247207;23;20000;-83
2022/05/01 02:54:28;;;;;;;21.35;15.35;;;12.70;99.90;;;;;;6247109;23;20028;-83
2022/05/01 02:56:54;;;;;;;21.70;16.02;;;12.70;99.90;;;;;;6220198;23;20008;-83
2022/05/01 02:59:20;;;;;;;21.48;15.55;;;12.70;99.90;;;;;;6247076;23;20071;-82
2022/05/01 03:01:45;;;;;;;22.10;15.57;;;12.70;99.90;;;;;;6247113;23;20023;-83
2022/05/01 03:04:12;;;;;;;24.17;15.85;;;12.70;99.90;;;;;;6247432;23;20001;-82
2022/05/01 03:06:37;;;;;;;20.38;14.80;;;12.70;99.90;;;;;;6220158;23;20471;-83
2022/05/01 03:09:04;;;;;;;22.90;15.73;;;12.70;99.90;;;;;;6246995;23;20001;-83
2022/05/01 03:11:31;;;;;;;23.00;15.68;;;12.70;99.90;;;;;;6246940;23;19996;-83
2022/05/01 03:13:58;;;;;;;21.17;15.38;;;12.70;99.90;;;;;;6220704;23;20077;-83
2022/05/01 03:16:23;;;;;;;20.73;15.32;;;12.70;99.90;;;;;;6219957;23;20083;-83
2022/05/01 03:24:18;;;;;;;21.08;16.23;;;12.70;99.90;;;;;;6247257;23;20092;-83
2022/05/01 03:26:43;;;;;;;26.02;15.23;;;12.70;99.90;;;;;;6246844;23;20007;-83
2022/05/01 03:29:12;;;;;;;22.70;15.40;;;12.70;99.90;;;;;;6219815;23;20440;-82
2022/05/01 03:31:38;;;;;;;23.15;15.63;;;12.70;99.90;;;;;;6219964;23;20004;-83
2022/05/01 03:34:04;;;;;;;22.90;15.70;;;12.70;99.90;;;;;;6246545;23;20019;-83
2022/05/01 03:36:30;;;;;;;22.77;16.17;;;12.70;99.90;;;;;;6246624;23;20324;-82
2022/05/01 03:38:56;;;;;;;23.17;15.70;;;12.70;99.90;;;;;;6219807;23;20004;-83
2022/05/01 03:41:22;;;;;;;25.20;16.10;;;12.70;99.90;;;;;;6246684;23;20488;-82
2022/05/01 03:43:48;;;;;;;21.95;15.98;;;12.70;99.90;;;;;;6247166;23;19996;-83
2022/05/01 03:46:13;;;;;;;23.17;15.50;;;12.60;99.90;;;;;;6246618;23;20000;-82
2022/05/01 03:48:39;;;;;;;23.33;15.82;;;12.60;99.90;;;;;;6219774;23;20036;-83
2022/05/01 03:51:05;;;;;;;24.10;15.85;;;12.60;99.90;;;;;;6246521;23;20015;-82
2022/05/01 03:53:31;;;;;;;20.05;14.43;;;12.60;99.90;;;;;;6219711;23;20000;-83
2022/05/01 03:55:57;;;;;;;20.42;15.02;;;12.60;99.90;;;;;;6219596;23;20082;-83
2022/05/01 03:58:23;;;;;;;22.20;15.70;;;12.60;99.90;;;;;;6246521;23;19996;-83
2022/05/01 04:00:49;;;;;;;23.88;16.15;;;12.60;99.90;;;;;;6246758;23;20007;-83
2022/05/01 04:03:15;;;;;;;22.95;14.85;;;12.60;99.90;;;;;;6246555;23;20126;-83
2022/05/01 04:05:41;;;;;;;21.30;14.65;;;12.60;99.90;;;;;;6246859;23;20000;-83
2022/05/01 04:08:08;;;;;;;21.63;14.80;;;12.60;99.90;;;;;;6219525;23;20344;-83
2022/05/01 04:10:44;;;;;;;21.05;15.15;;;12.60;99.90;;;;;;6246402;23;20081;-83
2022/05/01 04:13:12;;;;;;;21.98;16.20;;;12.60;99.90;;;;;;6246378;23;20007;-83
2022/05/01 04:15:37;;;;;;;21.95;14.55;;;12.60;99.90;;;;;;6246251;23;20010;-83
2022/05/01 04:18:05;;;;;;;23.10;15.02;;;12.60;99.90;;;;;;6246321;23;20459;-82
2022/05/01 04:20:32;;;;;;;22.95;15.82;;;12.60;99.90;;;;;;6246307;23;20002;-83
2022/05/01 04:22:59;;;;;;;23.80;16.13;;;12.60;99.90;;;;;;6246248;23;20027;-83
2022/05/01 04:25:27;;;;;;;27.27;16.70;;;12.60;99.90;;;;;;6246161;23;20378;-82
2022/05/01 04:28:04;;;;;;;20.58;14.52;;;12.60;99.90;;;;;;6246156;23;20035;-83
2022/05/01 04:30:33;;;;;;;23.27;16.40;;;12.60;99.90;;;;;;6246053;23;20000;-83
2022/05/01 04:33:07;;;;;;;19.92;15.07;;;12.60;99.90;;;;;;6246086;23;20012;-82
2022/05/01 04:35:34;;;;;;;27.80;16.75;;;12.60;99.90;;;;;;6246392;23;20004;-82
2022/05/01 04:38:01;;;;;;;25.50;16.85;;;12.60;99.90;;;;;;6219093;23;20004;-83
2022/05/01 04:40:36;;;;;;;24.02;15.50;;;12.60;99.90;;;;;;6219270;23;20008;-82
2022/05/01 04:43:01;;;;;;;23.83;15.57;;;12.60;99.90;;;;;;6246154;23;20006;-83
2022/05/01 04:45:29;;;;;;;24.63;16.30;;;12.60;99.90;;;;;;6219278;23;20130;-83
2022/05/01 04:47:55;;;;;;;28.08;17.70;;;12.60;99.90;;;;;;6219256;23;20482;-82
2022/05/01 04:50:20;;;;;;;25.08;17.02;;;12.60;99.90;;;;;;6219268;23;20054;-82
2022/05/01 04:52:46;;;;;;;22.65;16.42;;;12.60;99.90;;;;;;6246026;23;20008;-83
2022/05/01 04:55:12;;;;;;;24.23;16.40;;;12.60;99.90;;;;;;6218843;23;20095;-83
2022/05/01 04:57:39;;;;;;;24.63;17.05;;;12.60;99.90;;;;;;6219258;23;20000;-82
2022/05/01 05:00:07;;;;;;;21.70;15.35;;;12.60;99.90;;;;;;6246066;23;20424;-82
2022/05/01 05:02:38;;;;;;;23.10;16.27;;;12.60;99.90;;;;;;6246051;23;20054;-83
2022/05/01 05:05:08;;;;;;;21.10;15.55;;;12.60;99.90;;;;;;6219262;23;20000;-82
2022/05/01 05:07:33;;;;;;;24.33;16.58;;;12.60;99.90;;;;;;6219069;23;20032;-83
2022/05/01 05:09:59;;;;;;;23.73;16.65;;;12.50;99.90;;;;;;6245977;23;20004;-83
2022/05/01 05:12:25;;;;;;;24.80;16.10;;;12.60;99.90;;;;;;6219243;23;20381;-83
2022/05/01 05:14:58;;;;;;;27.42;17.52;;;12.50;99.90;;;;;;6246119;23;20024;-83
2022/05/01 05:17:23;;;;;;;28.63;16.98;;;12.50;99.90;;;;;;6245887;23;19997;-82
2022/05/01 05:19:49;;;;;;;25.23;17.42;;;12.50;99.90;;;;;;6219124;23;20007;-83
2022/05/01 05:22:15;;;;;;;24.95;17.20;;;12.50;99.90;;;;;;6218965;23;20000;-83
2022/05/01 05:24:41;;;;;;;27.15;17.33;;;12.50;99.90;;;;;;6218930;23;20136;-82
2022/05/01 05:27:07;;;;;;;27.63;17.45;;;12.50;99.90;;;;;;6245891;23;20007;-83
2022/05/01 05:29:33;;;;;;;24.40;17.80;;;12.60;99.90;;;;;;6246062;23;20031;-82
2022/05/01 05:31:59;;;;;;;27.08;18.15;;;12.50;99.90;;;;;;6245830;23;20003;-83
2022/05/01 05:34:25;;;;;;;27.58;18.15;;;12.50;99.90;;;;;;6106600;23;20038;-83
2022/05/01 05:36:51;;;;;;;24.33;16.45;;;12.50;99.90;;;;;;6090954;23;20347;-82
2022/05/01 05:39:18;;;;;;;28.08;16.88;;;12.50;99.90;;;;;;6091018;23;20069;-83
2022/05/01 05:41:44;;;;;;;25.42;17.95;;;12.60;99.90;;;;;;6091045;23;20011;-83
2022/05/01 05:44:10;;;;;;;25.77;17.35;;;12.60;99.90;;;;;;6091097;23;20034;-83
2022/05/01 05:46:36;;;;;;;24.83;16.23;;;12.50;99.90;;;;;;6092600;23;20478;-83
2022/05/01 05:49:02;;;;;;;25.95;17.10;;;12.50;99.90;;;;;;6092490;23;20030;-83
2022/05/01 05:51:27;;;;;;;23.55;16.77;;;12.50;99.90;;;;;;6092662;23;20072;-82
2022/05/01 05:53:53;;;;;;;28.00;18.17;;;12.60;99.90;;;;;;6091091;23;20064;-83
2022/05/01 05:56:20;;;;;;;25.77;17.75;;;12.50;99.90;;;;;;6091059;23;20037;-83
2022/05/01 05:58:46;;;;;;;23.40;17.50;;;12.60;99.90;;;;;;6091161;23;20430;-82
2022/05/01 06:01:12;;;;;;;24.77;17.75;;;12.60;99.90;;;;;;6092745;23;20068;-83
2022/05/01 06:03:39;;;;;;;25.20;17.45;;;12.60;99.90;;;;;;6090995;23;20002;-83
2022/05/01 06:06:05;;;;;;;26.70;18.00;;;12.60;99.90;;;;;;6093126;23;20003;-83
2022/05/01 06:08:31;;;;;;;26.55;16.83;;;12.60;99.90;;;;;;6093737;23;20002;-83
2022/05/01 06:10:57;;;;;;;25.42;17.75;;;12.60;99.90;;;;;;6092310;23;20011;-83
2022/05/01 06:13:23;;;;;;;25.23;17.80;;;12.60;99.90;;;;;;6093843;23;20128;-83
2022/05/01 06:15:48;;;;;;;24.88;16.65;;;12.60;99.90;;;;;;6093760;23;20014;-83
2022/05/01 06:18:15;;;;;;;23.20;16.77;;;12.60;99.90;;;;;;6092280;23;20077;-83
2022/05/01 06:20:41;;;;;;;23.42;16.00;;;12.60;99.90;;;;;;6093797;23;19998;-83
2022/05/01 06:23:06;;;;;;;23.90;16.48;;;12.60;99.90;;;;;;6093734;23;20003;-83
2022/05/01 06:25:35;;;;;;;25.10;16.85;;;12.70;99.90;;;;;;6092517;23;20018;-83
2022/05/01 06:28:00;;;;;;;26.67;16.15;;;12.70;99.90;;;;;;6092243;23;20369;-83
2022/05/01 06:30:26;;;;;;;24.83;17.33;;;12.70;99.90;;;;;;6092593;23;20015;-83
2022/05/01 06:32:52;;;;;;;24.02;16.52;;;12.70;99.90;;;;;;6129077;23;20039;-83
2022/05/01 06:35:18;;;;;;;25.48;16.48;;;12.70;99.90;;;;;;6247393;23;19999;-83
2022/05/01 06:37:44;;;;;;;25.38;17.33;;;12.70;99.90;;;;;;6247442;23;20000;-83
2022/05/01 06:40:10;;;;;;;23.98;17.15;;;12.70;99.90;;;;;;6247073;23;20009;-83
2022/05/01 06:42:36;;;;;;;25.58;17.38;;;12.70;99.90;;;;;;6247413;23;20067;-83
2022/05/01 06:45:04;;;;;;;24.65;16.80;;;12.70;99.90;;;;;;6220187;23;20373;-83
2022/05/01 06:47:30;;;;;;;23.00;16.35;;;12.70;99.90;;;;;;6220383;23;20006;-83
2022/05/01 06:49:56;;;;;;;22.08;15.88;;;12.70;99.90;;;;;;6220279;23;20328;-83
2022/05/01 06:52:23;;;;;;;22.73;16.48;;;12.70;99.90;;;;;;6247015;23;20006;-83
2022/05/01 06:54:53;;;;;;;22.50;16.48;;;12.70;99.90;;;;;;6220131;23;20000;-83
2022/05/01 06:57:19;;;;;;;23.45;16.13;;;12.70;99.90;;;;;;6220095;23;20004;-83
2022/05/01 06:59:45;;;;;;;21.15;15.68;;;12.70;99.90;;;;;;6247090;23;19996;-83
2022/05/01 07:02:11;;;;;;;22.13;16.02;;;12.70;99.90;;;;;;6246874;23;20004;-83
2022/05/01 07:04:37;;;;;;;21.23;15.38;;;12.70;99.90;;;;;;6246877;23;20004;-83
2022/05/01 07:07:02;;;;;;;18.83;14.55;;;12.70;99.90;;;;;;6219910;23;20000;-83
2022/05/01 07:09:28;;;;;;;21.33;15.18;;;12.70;99.90;;;;;;6219997;23;20008;-83
2022/05/01 07:11:54;;;;;;;18.67;14.90;;;12.60;99.90;;;;;;6219949;23;20004;-83
2022/05/01 07:14:20;;;;;;;18.08;14.27;;;12.70;99.90;;;;;;6246846;23;20471;-83
2022/05/01 07:16:47;;;;;;;18.88;14.32;;;12.70;99.90;;;;;;6246539;23;20008;-83
2022/05/01 07:19:13;;;;;;;21.05;14.60;;;12.60;99.90;;;;;;6246652;23;19996;-83
2022/05/01 07:21:39;;;;;;;19.17;14.10;;;12.60;99.90;;;;;;6247042;23;20294;-83
2022/05/01 07:24:05;;;;;;;18.02;13.20;;;12.60;99.90;;;;;;6219860;23;20340;-83
2022/05/01 07:26:33;;;;;;;18.95;13.52;;;12.60;99.90;;;;;;6246601;23;20011;-83
2022/05/01 07:29:00;;;;;;;19.00;14.05;;;12.60;99.90;;;;;;6246605;23;20079;-83
2022/05/01 07:31:26;;;;;;;18.02;13.38;;;12.60;99.90;;;;;;6219567;23;20087;-83
2022/05/01 07:33:51;;;;;;;18.42;13.63;;;12.60;99.90;;;;;;6135601;23;20030;-83
2022/05/01 07:36:19;;;;;;;18.80;14.13;;;12.60;99.90;;;;;;6093192;23;20010;-83
2022/05/01 07:38:45;;;;;;;18.10;13.57;;;12.60;99.90;;;;;;6092693;23;20007;-83
2022/05/01 07:41:11;;;;;;;17.52;12.95;;;12.60;99.90;;;;;;6093260;23;20312;-83
2022/05/01 07:43:38;;;;;;;19.00;13.80;;;12.60;99.90;;;;;;6093126;23;20077;-83
2022/05/01 07:46:04;;;;;;;19.45;13.18;;;12.60;99.90;;;;;;6093175;23;20029;-83
2022/05/01 07:48:30;;;;;;;19.35;12.98;;;12.60;99.90;;;;;;6091608;23;20002;-83
2022/05/01 07:50:56;;;;;;;18.65;12.70;;;12.60;99.90;;;;;;6093568;23;20069;-83
2022/05/01 07:53:22;;;;;;;17.52;12.25;;;12.60;99.90;;;;;;6091668;23;20007;-83
2022/05/01 07:55:47;;;;;;;15.90;12.55;;;12.60;99.90;;;;;;6093075;23;20068;-83
2022/05/01 07:58:13;;;;;;;14.25;11.48;;;12.60;99.90;;;;;;6093036;23;19998;-83
2022/05/01 08:00:39;;;;;;;15.25;11.52;;;12.60;99.90;;;;;;6091566;23;20452;-83
2022/05/01 08:05:48;;;;;;;18.27;11.77;;;12.60;99.90;;;;;;6093537;23;20457;-83
2022/05/01 08:08:14;;;;;;;15.70;11.80;;;12.70;99.90;;;;;;6091583;23;20007;-83
2022/05/01 08:10:40;;;;;;;18.92;12.55;;;12.70;99.90;;;;;;6091545;23;20006;-83
2022/05/01 08:13:07;;;;;;;16.15;12.20;;;12.70;99.90;;;;;;6093018;23;20034;-83
2022/05/01 08:15:33;;;;;;;15.50;10.98;;;12.70;99.90;;;;;;6091401;23;20347;-83
2022/05/01 08:21:05;;;;;;;17.13;11.60;;;12.70;99.90;;;;;;6091434;23;20022;-83
2022/05/01 08:23:28;;;;;;;13.43;11.10;;;12.70;99.90;;;;;;6093478;23;20013;-84
2022/05/01 08:25:54;;;;;;;15.07;11.25;;;12.70;99.90;;;;;;6093711;23;20003;-83
2022/05/01 08:28:20;;;;;;;15.65;11.10;;;12.80;99.90;;;;;;6092819;23;20038;-83
2022/05/01 08:30:45;;;;;;;15.05;11.38;;;12.80;99.90;;;;;;6090895;23;20007;-83
2022/05/01 08:33:11;;;;;;;14.55;10.77;;;12.80;99.90;;;;;;6148270;23;20019;-83
2022/05/01 08:35:37;;;;;;;14.68;11.02;;;12.80;99.90;;;;;;6245885;23;20087;-84
2022/05/01 08:38:02;;;;;;;15.70;10.70;;;12.80;99.90;;;;;;6219136;23;19996;-84
2022/05/01 08:40:28;;;;;;;12.57;10.43;;;12.80;99.90;;;;;;6219099;23;20007;-84
2022/05/01 08:42:53;;;;;;;15.13;11.35;;;12.80;99.90;;;;;;6219103;23;20046;-84
2022/05/01 08:45:33;;;;;;;14.35;10.18;;;12.80;99.90;;;;;;6245859;23;20090;-83
2022/05/01 08:48:07;;;;;;;12.48;9.95;;;12.80;99.90;;;;;;6219016;23;20007;-83
2022/05/01 08:50:38;;;;;;;15.13;10.68;;;12.80;99.90;;;;;;6245947;23;20000;-83
2022/05/01 08:53:05;;;;;;;12.95;10.45;;;12.80;99.90;;;;;;6218980;23;20032;-84
2022/05/01 08:55:31;;;;;;;12.23;10.05;;;12.80;99.90;;;;;;6218884;23;20096;-83
2022/05/01 08:57:59;;;;;;;13.10;10.65;;;12.80;99.90;;;;;;6218890;23;20008;-84
2022/05/01 09:00:27;;;;;;;13.20;10.20;;;12.80;99.90;;;;;;6245766;23;20000;-84
2022/05/01 09:02:52;;;;;;;15.65;11.93;;;12.80;99.90;;;;;;6218879;23;20011;-85
2022/05/01 09:05:18;;;;;;;25.35;15.90;;;12.80;99.90;;;;;;6218969;23;20008;-85
2022/05/01 09:07:44;;;;;;;25.45;16.00;;;12.70;99.90;;;;;;6218956;23;20063;-83
2022/05/01 09:10:10;;;;;;;23.75;15.23;;;12.50;99.90;;;;;;6218920;23;20058;-84
2022/05/01 09:12:53;;;;;;;27.40;14.68;;;12.40;99.90;;;;;;6245875;23;20004;-83
2022/05/01 09:15:29;;;;;;;22.48;14.15;;;12.40;99.90;;;;;;6246184;23;20413;-84
2022/05/01 09:18:02;;;;;;;21.60;15.25;;;12.50;99.90;;;;;;6218975;23;20005;-83
2022/05/01 09:20:28;;;;;;;21.85;14.00;;;12.50;99.90;;;;;;6245835;23;20000;-84
2022/05/01 09:22:55;;;;;;;23.48;14.43;;;12.60;99.90;;;;;;6245839;23;19992;-84
2022/05/01 09:25:22;;;;;;;20.75;14.35;;;12.60;99.90;;;;;;6245851;23;20004;-84
2022/05/01 09:27:49;;;;;;;17.25;13.52;;;12.70;99.90;;;;;;6245861;23;20009;-84
2022/05/01 09:30:22;;;;;;;18.05;13.57;;;12.80;99.90;;;;;;6218896;23;20009;-84
2022/05/01 09:32:49;;;;;;;19.63;13.57;;;12.80;99.90;;;;;;6189094;23;20022;-83
2022/05/01 09:35:35;;;;;;;17.80;12.98;;;12.80;99.90;;;;;;6092476;23;20438;-84
2022/05/01 09:38:17;;;;;;;19.85;11.57;;;12.80;99.90;;;;;;6092658;23;20082;-84
2022/05/01 09:40:47;;;;;;;23.92;12.20;;;12.90;99.90;;;;;;6091643;23;20445;-84
2022/05/01 09:43:31;;;;;;;14.70;11.65;;;12.90;99.90;;;;;;6093159;23;20438;-84
2022/05/01 09:46:16;;;;;;;;;;;12.90;99.90;;;;;;6092540;23;20446;-84
2022/05/01 09:48:55;;;;;;;15.30;11.05;;;12.90;99.90;;;;;;6092218;23;19951;-84
2022/05/01 09:51:20;;;;;;;17.58;11.38;;;12.90;99.90;;;;;;6092146;23;20453;-84
2022/05/01 09:53:46;;;;;;;17.83;12.15;;;12.90;99.90;;;;;;6093597;23;20034;-84
2022/05/01 09:56:13;;;;;;;14.57;10.75;;;12.90;99.90;;;;;;6092155;23;20342;-84
2022/05/01 09:58:40;;;;;;;15.43;11.15;;;12.90;99.90;;;;;;6093565;23;19994;-84
2022/05/01 10:01:16;;;;;;;17.75;10.77;;;13.00;99.90;;;;;;6092019;23;20453;-84
2022/05/01 10:03:45;;;;;;;16.58;10.93;;;13.00;99.90;;;;;;6091980;23;20316;-84
2022/05/01 10:06:15;;;;;;;14.85;11.02;;;13.00;99.90;;;;;;6093535;23;20090;-84
2022/05/01 10:08:43;;;;;;;15.48;10.05;;;13.00;99.90;;;;;;6092063;23;20038;-84
2022/05/01 10:11:10;;;;;;;15.40;10.90;;;13.10;99.90;;;;;;6093499;23;20469;-84
2022/05/01 10:13:36;;;;;;;14.07;10.00;;;13.10;99.90;;;;;;6093530;23;20003;-84
2022/05/01 10:16:06;;;;;;;13.02;9.68;;;13.10;99.90;;;;;;6093407;23;20007;-84
2022/05/01 10:18:31;;;;;;;16.08;9.77;;;13.20;99.90;;;;;;6093892;23;20003;-84
2022/05/01 10:20:57;;;;;;;11.45;8.27;;;13.20;99.90;;;;;;6091969;23;20103;-84
2022/05/01 10:23:23;;;;;;;14.25;9.77;;;13.20;99.90;;;;;;6093539;23;20034;-84
2022/05/01 10:25:58;;;;;;;10.88;8.48;;;13.20;99.90;;;;;;6093509;23;20006;-84
2022/05/01 10:28:45;;;;;;;13.05;9.73;;;13.20;99.90;;;;;;6092046;23;20011;-84
2022/05/01 10:34:25;;;;;;;12.85;8.30;;;13.20;99.90;;;;;;6226474;23;20027;-84
2022/05/01 10:36:59;;;;;;;10.88;8.68;;;13.20;99.90;;;;;;6220168;23;20008;-83
2022/05/01 10:39:33;;;;;;;12.55;8.50;;;13.20;99.90;;;;;;6247380;23;20023;-84
2022/05/01 10:42:00;;;;;;;11.02;7.72;;;13.20;99.90;;;;;;6247141;23;20073;-84
2022/05/01 10:44:39;;;;;;;10.15;7.93;;;13.20;99.90;;;;;;6247016;23;19996;-84
2022/05/01 10:47:12;;;;;;;10.27;7.85;;;13.20;99.90;;;;;;6220186;23;20057;-84
2022/05/01 10:49:41;;;;;;;12.43;8.77;;;13.20;99.90;;;;;;6247004;23;20004;-84
2022/05/01 10:52:19;;;;;;;10.35;8.82;;;13.20;99.90;;;;;;6219507;23;20050;-84
2022/05/01 10:55:05;;;;;;;9.02;7.45;;;13.20;99.90;;;;;;6220197;23;20086;-84
2022/05/01 10:57:31;;;;;;;11.68;8.02;;;13.20;99.90;;;;;;6247249;23;20375;-84
2022/05/01 11:00:11;;;;;;;11.25;8.27;;;13.20;99.90;;;;;;6220075;23;20008;-84
2022/05/01 11:02:45;;;;;;;11.02;7.93;;;13.20;99.90;;;;;;6219834;23;20004;-84
2022/05/01 11:05:42;;;;;;;11.30;8.32;;;13.10;99.90;;;;;;6220104;23;20000;-85
2022/05/01 11:08:27;;;;;;;9.75;7.30;;;13.10;99.90;;;;;;6219957;23;20015;-84
2022/05/01 11:10:56;;;;;;;9.98;7.78;;;13.10;99.90;;;;;;6219961;23;20424;-84
2022/05/01 11:13:33;;;;;;;9.75;7.72;;;13.20;99.90;;;;;;6219790;23;20007;-84
2022/05/01 11:15:59;;;;;;;10.73;7.93;;;13.10;99.90;;;;;;6219729;23;20082;-84
2022/05/01 11:18:35;;;;;;;10.63;8.15;;;13.10;99.90;;;;;;6246684;23;19996;-84
2022/05/01 11:21:19;;;;;;;12.52;7.68;;;13.20;99.90;;;;;;6220819;23;20312;-84
2022/05/01 11:23:46;;;;;;;8.45;7.18;;;13.10;99.90;;;;;;6219803;23;20004;-84
2022/05/01 11:26:19;;;;;;;10.77;7.65;;;13.20;99.90;;;;;;6219702;23;20432;-84
2022/05/01 11:28:53;;;;;;;10.45;7.82;;;13.20;99.90;;;;;;6246638;23;20064;-84
2022/05/01 11:31:37;;;;;;;10.65;7.07;;;13.20;99.90;;;;;;6219653;23;20010;-84
2022/05/01 11:34:24;;;;;;;9.60;7.07;;;13.20;99.90;;;;;;6126375;23;20026;-85
2022/05/01 11:36:54;;;;;;;8.23;6.63;;;13.30;99.90;;;;;;6091772;23;20442;-85
2022/05/01 11:39:20;;;;;;;8.82;6.30;;;13.30;99.90;;;;;;6091792;23;20007;-85
2022/05/01 11:42:00;;;;;;;8.93;7.03;;;13.30;99.90;;;;;;6091803;23;20516;-85
2022/05/01 11:44:27;;;;;;;8.63;6.80;;;13.30;99.90;;;;;;6093614;23;19998;-85
2022/05/01 11:46:53;;;;;;;8.35;6.70;;;13.30;99.90;;;;;;6093305;23;20411;-85
2022/05/01 11:49:19;;;;;;;9.18;6.82;;;13.30;99.90;;;;;;6093307;23;20014;-85
2022/05/01 11:51:47;;;;;;;8.60;7.38;;;13.30;99.90;;;;;;6091708;23;20017;-85
2022/05/01 11:54:14;;;;;;;10.25;7.30;;;13.30;99.90;;;;;;6093207;23;20074;-85
2022/05/01 12:02:27;;;;;;;9.02;6.68;;;13.30;99.90;;;;;;6093608;23;20316;-85
2022/05/01 12:05:00;;;;;;;10.02;6.40;;;13.30;99.90;;;;;;6093038;23;19998;-85
2022/05/01 12:07:25;;;;;;;9.15;6.57;;;13.30;99.90;;;;;;6093139;23;20029;-84
2022/05/01 12:09:51;;;;;;;8.25;6.55;;;13.30;99.90;;;;;;6091823;23;20006;-85
2022/05/01 12:12:19;;;;;;;9.30;6.68;;;13.30;99.90;;;;;;6091629;23;20015;-85
2022/05/01 12:14:46;;;;;;;8.65;6.68;;;13.30;99.90;;;;;;6091565;23;20069;-85
2022/05/01 12:17:14;;;;;;;8.82;6.88;;;13.30;99.90;;;;;;6092995;23;19998;-85
2022/05/01 12:19:42;;;;;;;8.55;6.68;;;13.40;99.90;;;;;;6093075;23;20033;-85
2022/05/01 12:22:12;;;;;;;8.52;6.90;;;13.40;99.90;;;;;;6092492;23;20453;-84
2022/05/01 12:24:38;;;;;;;8.18;6.15;;;13.40;99.90;;;;;;6091578;23;20063;-85
2022/05/01 12:27:06;;;;;;;8.60;6.80;;;13.40;99.90;;;;;;6091514;23;20006;-85
2022/05/01 12:29:33;;;;;;;7.10;5.90;;;13.50;99.90;;;;;;6091427;23;20105;-85
2022/05/01 12:32:06;;;;;;;7.95;6.22;;;13.50;99.90;;;;;;6091469;23;20389;-85
2022/05/01 12:34:52;;;;;;;7.93;5.88;;;13.60;99.90;;;;;;6091327;23;20439;-85
2022/05/01 12:37:19;;;;;;;7.90;6.82;;;13.70;99.90;;;;;;6091189;23;20075;-85
2022/05/01 12:39:59;;;;;;;9.55;6.20;;;13.80;99.90;;;;;;6092955;23;20490;-85
2022/05/01 12:45:20;;;;;;;9.43;6.75;;;14.00;99.90;;;;;;6093268;23;20334;-86
2022/05/01 12:47:51;;;;;;;7.63;6.20;;;14.10;99.90;;;;;;6093217;23;20361;-85
2022/05/01 12:50:19;;;;;;;7.82;6.30;;;14.30;99.90;;;;;;6091424;23;20029;-85
2022/05/01 12:52:55;;;;;;;10.80;6.50;;;14.40;99.90;;;;;;6091426;23;20087;-85
2022/05/01 12:55:27;;;;;;;9.05;5.65;;;14.50;99.90;;;;;;6091224;23;20144;-85
2022/05/01 12:57:57;;;;;;;6.90;5.88;;;14.60;99.90;;;;;;6091281;23;20312;-86
2022/05/01 13:00:29;;;;;;;8.07;6.40;;;14.60;99.90;;;;;;6091324;23;20341;-85
2022/05/01 13:03:17;;;;;;;8.13;5.80;;;14.60;99.90;;;;;;6091468;23;20018;-85
2022/05/01 13:06:13;;;;;;;8.52;6.32;;;14.60;99.90;;;;;;6091281;23;20007;-86
2022/05/01 13:09:05;;;;;;;6.70;5.72;;;14.50;99.90;;;;;;6092856;23;20009;-86